Time;durP1;ratioP1;P1;durP2;ratioP2;P2;SDS_P1;SDS_P2;PMS_P1;PMS_P2;Temp;Humidity;BMP_temperature;BMP_pressure;BME280_temperature;BME280_humidity;BME280_pressure;Samples;Min_cycle;Max_cycle;Signal;HPM_P1;HPM_P2
2021/07/07 00:01:46;;;;;;;19.20;18.20;;;;;;;;;;5074046;28;20469;-70
2021/07/07 00:04:13;;;;;;;19.07;18.17;;;;;;;;;;5074048;28;20453;-66
2021/07/07 00:06:40;;;;;;;19.93;18.83;;;;;;;;;;5074341;28;21017;-66
2021/07/07 00:09:07;;;;;;;19.60;18.70;;;;;;;;;;5073858;28;20447;-66
2021/07/07 00:11:34;;;;;;;20.13;18.93;;;;;;;;;;5073726;28;20811;-67
2021/07/07 00:14:01;;;;;;;19.07;18.10;;;;;;;;;;5073367;28;20449;-66
2021/07/07 00:16:30;;;;;;;20.13;19.03;;;;;;;;;;5073755;28;20934;-67
2021/07/07 00:18:57;;;;;;;19.60;18.70;;;;;;;;;;5094108;28;20452;-67
2021/07/07 00:21:24;;;;;;;19.27;18.37;;;;;;;;;;5093882;28;20466;-67
2021/07/07 00:23:51;;;;;;;18.67;17.87;;;;;;;;;;5092229;28;20450;-66
2021/07/07 00:26:18;;;;;;;19.93;18.93;;;;;;;;;;5092525;28;21010;-66
2021/07/07 00:28:45;;;;;;;19.27;18.37;;;;;;;;;;5092764;28;20458;-68
2021/07/07 00:31:12;;;;;;;18.50;17.60;;;;;;;;;;5091071;28;20841;-67
2021/07/07 00:33:41;;;;;;;24.10;19.93;;;;;;;;;;5091840;28;20439;-67
2021/07/07 00:36:08;;;;;;;18.73;17.70;;;;;;;;;;5083359;28;20456;-69
2021/07/07 00:38:35;;;;;;;19.53;18.53;;;;;;;;;;5093662;28;20489;-66
2021/07/07 00:41:02;;;;;;;19.23;18.33;;;;;;;;;;5086398;28;20471;-67
2021/07/07 00:43:29;;;;;;;18.93;17.93;;;;;;;;;;5073487;28;20537;-66
2021/07/07 00:45:56;;;;;;;19.37;18.27;;;;;;;;;;5073328;28;20485;-68
2021/07/07 00:48:24;;;;;;;19.20;18.20;;;;;;;;;;5072513;28;20450;-66
2021/07/07 00:50:52;;;;;;;19.73;18.53;;;;;;;;;;5079989;28;20513;-67
2021/07/07 00:53:19;;;;;;;19.20;18.20;;;;;;;;;;5073094;28;20470;-66
2021/07/07 00:55:47;;;;;;;19.73;18.60;;;;;;;;;;5073204;28;20447;-68
2021/07/07 00:58:14;;;;;;;19.70;18.53;;;;;;;;;;5075902;28;21020;-66
2021/07/07 01:00:42;;;;;;;18.57;17.57;;;;;;;;;;5092003;28;20531;-66
2021/07/07 01:03:09;;;;;;;19.33;18.13;;;;;;;;;;5072727;28;20541;-68
2021/07/07 01:05:36;;;;;;;19.87;18.60;;;;;;;;;;5073348;28;20451;-67
2021/07/07 01:08:05;;;;;;;19.47;18.30;;;;;;;;;;5092037;28;20453;-67
2021/07/07 01:10:32;;;;;;;19.60;18.60;;;;;;;;;;5092784;28;20472;-66
2021/07/07 01:12:59;;;;;;;19.20;18.20;;;;;;;;;;5091390;28;20460;-67
2021/07/07 01:15:26;;;;;;;18.03;17.20;;;;;;;;;;5093105;28;20448;-66
2021/07/07 01:17:54;;;;;;;18.97;18.07;;;;;;;;;;5076811;28;20443;-66
2021/07/07 01:20:23;;;;;;;18.77;17.70;;;;;;;;;;5072077;28;20466;-66
2021/07/07 01:22:52;;;;;;;19.13;18.13;;;;;;;;;;5087661;28;20940;-66
2021/07/07 01:25:20;;;;;;;18.57;17.67;;;;;;;;;;5090801;28;20446;-67
2021/07/07 01:27:47;;;;;;;19.03;17.87;;;;;;;;;;5091837;28;20485;-68
2021/07/07 01:30:16;;;;;;;19.13;18.07;;;;;;;;;;5091907;28;20487;-68
2021/07/07 01:32:43;;;;;;;18.30;17.40;;;;;;;;;;5090170;28;20461;-69
2021/07/07 01:35:11;;;;;;;20.13;18.77;;;;;;;;;;5092222;28;20456;-66
2021/07/07 01:37:38;;;;;;;19.00;18.00;;;;;;;;;;5091577;28;20444;-67
2021/07/07 01:40:08;;;;;;;19.33;18.43;;;;;;;;;;5092361;28;20466;-67
2021/07/07 01:42:35;;;;;;;18.40;17.50;;;;;;;;;;5091826;28;20450;-67
2021/07/07 01:45:02;;;;;;;18.20;17.30;;;;;;;;;;5086473;28;20490;-66
2021/07/07 01:47:30;;;;;;;18.60;17.70;;;;;;;;;;5084396;28;20501;-68
2021/07/07 01:49:57;;;;;;;20.00;19.00;;;;;;;;;;5092323;28;20466;-68
2021/07/07 01:52:24;;;;;;;19.47;18.37;;;;;;;;;;5090675;28;20815;-68
2021/07/07 01:54:51;;;;;;;18.80;17.90;;;;;;;;;;5092527;28;20503;-67
2021/07/07 01:57:20;;;;;;;19.50;18.30;;;;;;;;;;5091183;28;20789;-66
2021/07/07 01:59:47;;;;;;;18.50;17.60;;;;;;;;;;5091163;28;20484;-67
2021/07/07 02:02:14;;;;;;;18.60;17.70;;;;;;;;;;5083341;28;20785;-67
2021/07/07 02:04:41;;;;;;;18.43;17.43;;;;;;;;;;5071457;28;20457;-67
2021/07/07 02:07:08;;;;;;;19.17;18.00;;;;;;;;;;5072627;28;20989;-69
2021/07/07 02:09:35;;;;;;;19.10;18.20;;;;;;;;;;5071838;28;20463;-67
2021/07/07 02:12:02;;;;;;;19.20;18.20;;;;;;;;;;5071895;28;20455;-68
2021/07/07 02:14:31;;;;;;;19.00;18.00;;;;;;;;;;5071817;28;20449;-67
2021/07/07 02:16:58;;;;;;;18.73;17.83;;;;;;;;;;5071409;28;20443;-67
2021/07/07 02:19:25;;;;;;;18.83;17.73;;;;;;;;;;5072415;28;20545;-67
2021/07/07 02:21:52;;;;;;;18.63;17.63;;;;;;;;;;5073889;28;20456;-66
2021/07/07 02:24:19;;;;;;;19.70;18.57;;;;;;;;;;5091770;28;20450;-67
2021/07/07 02:26:46;;;;;;;20.03;18.60;;;;;;;;;;5090728;28;20818;-66
2021/07/07 02:29:13;;;;;;;19.67;18.57;;;;;;;;;;5091902;28;20446;-66
2021/07/07 02:31:42;;;;;;;19.43;18.53;;;;;;;;;;5082329;28;20447;-66
2021/07/07 02:34:09;;;;;;;19.20;18.10;;;;;;;;;;5071885;28;20453;-67
2021/07/07 02:36:36;;;;;;;18.67;17.67;;;;;;;;;;5077753;28;20443;-66
2021/07/07 02:39:03;;;;;;;19.23;18.20;;;;;;;;;;5091640;28;20441;-66
2021/07/07 02:41:30;;;;;;;19.30;18.20;;;;;;;;;;5076220;28;20450;-65
2021/07/07 02:43:57;;;;;;;18.40;17.47;;;;;;;;;;5091451;28;20442;-67
2021/07/07 02:46:25;;;;;;;18.60;17.70;;;;;;;;;;5090099;28;20956;-66
2021/07/07 02:48:53;;;;;;;20.80;19.03;;;;;;;;;;5077739;28;20439;-66
2021/07/07 02:51:20;;;;;;;19.27;17.93;;;;;;;;;;5071513;28;20477;-67
2021/07/07 02:53:47;;;;;;;18.07;17.07;;;;;;;;;;5074481;28;20453;-66
2021/07/07 02:56:14;;;;;;;18.60;17.60;;;;;;;;;;5090673;28;20458;-66
2021/07/07 02:58:41;;;;;;;18.80;17.80;;;;;;;;;;5090729;28;20835;-67
2021/07/07 03:01:09;;;;;;;18.33;17.33;;;;;;;;;;5051140;28;20476;-67
2021/07/07 03:03:36;;;;;;;18.60;17.60;;;;;;;;;;5051069;28;20450;-67
2021/07/07 03:06:04;;;;;;;18.70;17.60;;;;;;;;;;5070392;28;20457;-67
2021/07/07 03:08:32;;;;;;;18.53;17.60;;;;;;;;;;5082676;28;21048;-67
2021/07/07 03:10:59;;;;;;;18.67;17.50;;;;;;;;;;5091348;28;20472;-66
2021/07/07 03:13:27;;;;;;;19.10;18.10;;;;;;;;;;5083768;28;20460;-67
2021/07/07 03:15:54;;;;;;;18.93;17.83;;;;;;;;;;5076305;28;20446;-68
2021/07/07 03:18:22;;;;;;;18.73;17.60;;;;;;;;;;5083789;28;20446;-67
2021/07/07 03:20:50;;;;;;;18.83;17.83;;;;;;;;;;5094820;28;20466;-66
2021/07/07 03:23:19;;;;;;;18.97;17.97;;;;;;;;;;5087158;28;20446;-66
2021/07/07 03:25:47;;;;;;;19.30;18.20;;;;;;;;;;5075749;28;20956;-68
2021/07/07 03:28:14;;;;;;;19.47;18.27;;;;;;;;;;5094670;28;20481;-67
2021/07/07 03:30:41;;;;;;;19.33;18.17;;;;;;;;;;5094430;28;20477;-66
2021/07/07 03:33:08;;;;;;;18.70;17.70;;;;;;;;;;5101660;22;20497;-65
2021/07/07 03:35:36;;;;;;;19.07;18.17;;;;;;;;;;5075937;28;20544;-66
2021/07/07 03:38:03;;;;;;;19.37;18.30;;;;;;;;;;5076440;28;20445;-65
2021/07/07 03:40:32;;;;;;;19.23;18.23;;;;;;;;;;5075903;28;20451;-66
2021/07/07 03:42:59;;;;;;;18.90;18.00;;;;;;;;;;5066906;28;20506;-65
2021/07/07 03:45:27;;;;;;;18.77;17.77;;;;;;;;;;5076076;28;20439;-65
2021/07/07 03:47:54;;;;;;;19.40;18.13;;;;;;;;;;5075266;28;20478;-65
2021/07/07 03:50:22;;;;;;;19.40;18.10;;;;;;;;;;5075781;28;20451;-65
2021/07/07 03:52:50;;;;;;;19.37;18.30;;;;;;;;;;5075562;28;20479;-65
2021/07/07 03:55:18;;;;;;;19.30;18.30;;;;;;;;;;5076583;28;20450;-65
2021/07/07 03:57:46;;;;;;;19.77;18.77;;;;;;;;;;5076122;28;20454;-65
2021/07/07 04:00:15;;;;;;;19.70;18.70;;;;;;;;;;5076105;28;20446;-65
2021/07/07 04:02:43;;;;;;;19.23;18.20;;;;;;;;;;5075335;28;21017;-65
2021/07/07 04:05:11;;;;;;;20.40;19.00;;;;;;;;;;5076087;28;20823;-65
2021/07/07 04:07:38;;;;;;;19.60;18.30;;;;;;;;;;5075969;28;20485;-66
2021/07/07 04:10:06;;;;;;;19.03;17.77;;;;;;;;;;5076352;28;20443;-65
2021/07/07 04:12:33;;;;;;;19.00;18.10;;;;;;;;;;5074733;28;20997;-66
2021/07/07 04:15:02;;;;;;;19.07;18.07;;;;;;;;;;5075864;28;20461;-66
2021/07/07 04:17:29;;;;;;;19.77;18.40;;;;;;;;;;5075256;28;20957;-65
2021/07/07 04:19:56;;;;;;;20.33;19.13;;;;;;;;;;5075529;28;20449;-66
2021/07/07 04:22:23;;;;;;;20.73;19.53;;;;;;;;;;5074996;28;20481;-65
2021/07/07 04:24:50;;;;;;;20.13;18.90;;;;;;;;;;5075303;28;20827;-65
2021/07/07 04:27:17;;;;;;;19.43;18.13;;;;;;;;;;5074598;28;20479;-66
2021/07/07 04:29:44;;;;;;;20.20;19.00;;;;;;;;;;5075496;28;20447;-65
2021/07/07 04:32:16;;;;;;;20.50;18.87;;;;;;;;;;5074920;28;20475;-66
2021/07/07 04:34:43;;;;;;;20.77;19.13;;;;;;;;;;5074780;28;20458;-65
2021/07/07 04:37:10;;;;;;;20.20;19.17;;;;;;;;;;5074434;28;20451;-66
2021/07/07 04:39:37;;;;;;;20.30;19.20;;;;;;;;;;5074726;28;20448;-66
2021/07/07 04:42:04;;;;;;;19.67;18.77;;;;;;;;;;5074626;28;20474;-65
2021/07/07 04:44:32;;;;;;;20.03;18.93;;;;;;;;;;5074737;28;20470;-67
2021/07/07 04:46:59;;;;;;;20.30;19.20;;;;;;;;;;5074197;28;20458;-66
2021/07/07 04:49:28;;;;;;;20.10;18.80;;;;;;;;;;5074779;28;20455;-66
2021/07/07 04:51:55;;;;;;;20.00;18.90;;;;;;;;;;5073807;28;20478;-65
2021/07/07 04:54:22;;;;;;;19.23;18.27;;;;;;;;;;5074349;28;20449;-66
2021/07/07 04:56:49;;;;;;;21.83;19.63;;;;;;;;;;5074026;28;20451;-65
2021/07/07 04:59:16;;;;;;;20.23;19.20;;;;;;;;;;5075008;28;20439;-65
2021/07/07 05:01:44;;;;;;;20.23;19.03;;;;;;;;;;5073501;28;20457;-65
2021/07/07 05:04:11;;;;;;;20.43;19.40;;;;;;;;;;5073871;28;20447;-65
2021/07/07 05:06:39;;;;;;;20.70;19.60;;;;;;;;;;5074361;28;20451;-65
2021/07/07 05:09:06;;;;;;;19.90;18.57;;;;;;;;;;5074479;28;21001;-66
2021/07/07 05:11:33;;;;;;;20.17;18.97;;;;;;;;;;5073883;28;20453;-66
2021/07/07 05:14:01;;;;;;;19.80;18.70;;;;;;;;;;5074190;28;20826;-66
2021/07/07 05:16:28;;;;;;;20.73;19.53;;;;;;;;;;5074469;28;20445;-66
2021/07/07 05:18:55;;;;;;;20.37;19.37;;;;;;;;;;5057990;28;20902;-65
2021/07/07 05:21:22;;;;;;;19.83;18.80;;;;;;;;;;5073424;28;20448;-65
2021/07/07 05:23:50;;;;;;;20.37;19.10;;;;;;;;;;5073694;28;20841;-66
2021/07/07 05:26:18;;;;;;;20.10;19.10;;;;;;;;;;5074189;28;20461;-65
2021/07/07 05:28:45;;;;;;;19.73;18.73;;;;;;;;;;5073938;28;20609;-66
2021/07/07 05:31:12;;;;;;;20.13;19.03;;;;;;;;;;5073402;28;20494;-65
2021/07/07 05:33:39;;;;;;;20.00;18.90;;;;;;;;;;5073658;28;20565;-66
2021/07/07 05:36:08;;;;;;;19.90;18.90;;;;;;;;;;5076542;28;20514;-66
2021/07/07 05:38:35;;;;;;;19.37;18.37;;;;;;;;;;5089072;28;20454;-65
2021/07/07 05:41:04;;;;;;;19.97;18.87;;;;;;;;;;5087705;28;20451;-65
2021/07/07 05:43:31;;;;;;;19.90;18.80;;;;;;;;;;5068979;28;21067;-66
2021/07/07 05:45:59;;;;;;;20.50;19.40;;;;;;;;;;5075439;28;20541;-65
2021/07/07 05:48:26;;;;;;;19.97;18.73;;;;;;;;;;5079330;28;20574;-66
2021/07/07 05:50:53;;;;;;;21.80;20.20;;;;;;;;;;5088102;28;20506;-65
2021/07/07 05:53:20;;;;;;;22.37;20.43;;;;;;;;;;5075039;28;20502;-65
2021/07/07 05:55:47;;;;;;;20.27;19.07;;;;;;;;;;5073170;28;20509;-67
2021/07/07 05:58:16;;;;;;;20.13;18.70;;;;;;;;;;5074175;28;20445;-65
2021/07/07 06:00:43;;;;;;;20.50;19.30;;;;;;;;;;5074117;28;20446;-65
2021/07/07 06:03:11;;;;;;;22.37;21.17;;;;;;;;;;5074022;28;20467;-66
2021/07/07 06:05:38;;;;;;;19.60;18.10;;;;;;;;;;5073718;28;20819;-66
2021/07/07 06:08:06;;;;;;;20.80;19.13;;;;;;;;;;5072797;28;20483;-65
2021/07/07 06:10:33;;;;;;;19.60;18.10;;;;;;;;;;5074195;28;20458;-65
2021/07/07 06:13:00;;;;;;;20.23;18.80;;;;;;;;;;5073090;28;20554;-66
2021/07/07 06:15:31;;;;;;;19.50;18.40;;;;;;;;;;5073571;28;20537;-65
2021/07/07 06:17:59;;;;;;;20.43;18.97;;;;;;;;;;5073647;28;20539;-65
2021/07/07 06:20:26;;;;;;;22.70;21.23;;;;;;;;;;5073404;28;20497;-66
2021/07/07 06:22:53;;;;;;;23.17;21.77;;;;;;;;;;5072708;28;20471;-65
2021/07/07 06:25:21;;;;;;;23.13;21.83;;;;;;;;;;5072739;28;20476;-66
2021/07/07 06:27:48;;;;;;;23.67;22.27;;;;;;;;;;5073036;28;20489;-65
2021/07/07 06:30:16;;;;;;;21.87;20.77;;;;;;;;;;5073728;28;20445;-65
2021/07/07 06:32:45;;;;;;;22.77;21.40;;;;;;;;;;5073032;28;20546;-66
2021/07/07 06:35:13;;;;;;;22.40;21.10;;;;;;;;;;5073553;28;20934;-66
2021/07/07 06:37:40;;;;;;;22.10;20.53;;;;;;;;;;5072932;28;20457;-65
2021/07/07 06:40:08;;;;;;;23.70;22.50;;;;;;;;;;5072819;28;20454;-66
2021/07/07 06:42:36;;;;;;;24.33;22.73;;;;;;;;;;5072718;28;20849;-66
2021/07/07 06:45:03;;;;;;;23.13;21.93;;;;;;;;;;5073351;28;20898;-66
2021/07/07 06:47:30;;;;;;;23.10;21.90;;;;;;;;;;5074071;28;20454;-65
2021/07/07 06:49:59;;;;;;;22.90;21.70;;;;;;;;;;5075835;28;20901;-65
2021/07/07 06:52:27;;;;;;;22.80;21.33;;;;;;;;;;5075843;28;20475;-65
2021/07/07 06:54:54;;;;;;;23.23;22.03;;;;;;;;;;5075679;28;20461;-65
2021/07/07 06:57:22;;;;;;;23.23;22.03;;;;;;;;;;5075777;28;20439;-65
2021/07/07 06:59:49;;;;;;;23.70;22.50;;;;;;;;;;5076335;28;20443;-67
2021/07/07 07:02:16;;;;;;;22.90;21.53;;;;;;;;;;5075363;28;20478;-67
2021/07/07 07:04:43;;;;;;;23.83;22.53;;;;;;;;;;5076376;28;20447;-67
2021/07/07 07:07:11;;;;;;;23.20;21.90;;;;;;;;;;5076277;28;20453;-66
2021/07/07 07:09:38;;;;;;;22.70;21.50;;;;;;;;;;5075589;28;20868;-67
2021/07/07 07:12:06;;;;;;;24.07;22.67;;;;;;;;;;5075790;28;20474;-67
2021/07/07 07:14:33;;;;;;;24.23;22.93;;;;;;;;;;5075549;28;20534;-66
2021/07/07 07:17:00;;;;;;;22.17;20.97;;;;;;;;;;5075716;28;20953;-66
2021/07/07 07:19:27;;;;;;;20.00;18.77;;;;;;;;;;5075816;28;20447;-66
2021/07/07 07:21:54;;;;;;;21.53;20.20;;;;;;;;;;5075573;28;20840;-66
2021/07/07 07:24:23;;;;;;;23.27;21.70;;;;;;;;;;5070899;28;20474;-69
2021/07/07 07:26:50;;;;;;;21.10;19.80;;;;;;;;;;5075968;28;20459;-66
2021/07/07 07:29:17;;;;;;;21.60;20.00;;;;;;;;;;5070671;28;20482;-65
2021/07/07 07:31:44;;;;;;;22.47;21.07;;;;;;;;;;5066832;28;20454;-65
2021/07/07 07:34:13;;;;;;;23.27;21.97;;;;;;;;;;5073988;28;20811;-65
2021/07/07 07:36:40;;;;;;;22.53;21.30;;;;;;;;;;5073685;28;20451;-66
2021/07/07 07:39:10;;;;;;;22.57;21.27;;;;;;;;;;5076040;28;20834;-65
2021/07/07 07:41:38;;;;;;;23.57;22.27;;;;;;;;;;5075112;28;20949;-66
2021/07/07 07:44:07;;;;;;;22.90;21.60;;;;;;;;;;5075378;28;21023;-66
2021/07/07 07:46:35;;;;;;;25.40;23.60;;;;;;;;;;5075517;28;20453;-66
2021/07/07 07:49:02;;;;;;;20.87;19.50;;;;;;;;;;5073862;28;20768;-66
2021/07/07 07:51:30;;;;;;;21.47;20.30;;;;;;;;;;5074601;28;20501;-66
2021/07/07 07:53:57;;;;;;;21.97;20.83;;;;;;;;;;5074855;28;20482;-65
2021/07/07 07:56:24;;;;;;;22.53;21.40;;;;;;;;;;5075134;28;20454;-66
2021/07/07 07:58:53;;;;;;;22.57;21.40;;;;;;;;;;5074371;28;20451;-65
2021/07/07 08:01:20;;;;;;;21.63;20.40;;;;;;;;;;5075077;28;20487;-65
2021/07/07 08:03:47;;;;;;;20.90;19.80;;;;;;;;;;5075414;28;20925;-65
2021/07/07 08:06:14;;;;;;;19.60;18.50;;;;;;;;;;5075333;28;20443;-65
2021/07/07 08:08:41;;;;;;;20.70;19.60;;;;;;;;;;5075335;28;21102;-65
2021/07/07 08:11:08;;;;;;;19.83;18.80;;;;;;;;;;5075345;28;20469;-65
2021/07/07 08:13:37;;;;;;;21.10;19.90;;;;;;;;;;5060449;28;20483;-65
2021/07/07 08:16:06;;;;;;;19.37;18.07;;;;;;;;;;5063593;28;20529;-66
2021/07/07 08:18:33;;;;;;;21.73;20.53;;;;;;;;;;5075743;28;20530;-66
2021/07/07 08:21:00;;;;;;;22.23;21.13;;;;;;;;;;5074317;28;20451;-67
2021/07/07 08:23:28;;;;;;;19.57;18.60;;;;;;;;;;5074648;28;20473;-67
2021/07/07 08:25:55;;;;;;;18.70;17.77;;;;;;;;;;5071021;28;20452;-67
2021/07/07 08:28:22;;;;;;;19.43;18.20;;;;;;;;;;5075549;28;20480;-67
2021/07/07 08:30:49;;;;;;;18.47;17.57;;;;;;;;;;5074474;28;20451;-66
2021/07/07 08:33:18;;;;;;;18.40;17.50;;;;;;;;;;5074976;28;20478;-66
2021/07/07 08:35:45;;;;;;;17.97;16.97;;;;;;;;;;5075442;28;20449;-67
2021/07/07 08:38:13;;;;;;;18.03;17.03;;;;;;;;;;5074490;28;20457;-67
2021/07/07 08:40:40;;;;;;;19.80;18.23;;;;;;;;;;5074653;28;20799;-68
2021/07/07 08:43:09;;;;;;;18.20;17.20;;;;;;;;;;5074724;28;21289;-65
2021/07/07 08:45:36;;;;;;;19.20;18.10;;;;;;;;;;5075010;28;21091;-65
2021/07/07 08:48:03;;;;;;;18.23;17.17;;;;;;;;;;5074483;28;20447;-68
2021/07/07 08:50:34;;;;;;;20.30;19.30;;;;;;;;;;5073268;28;20439;-67
2021/07/07 08:53:03;;;;;;;21.40;20.10;;;;;;;;;;5074258;28;20474;-67
2021/07/07 08:55:30;;;;;;;20.53;19.40;;;;;;;;;;5074472;28;20550;-66
2021/07/07 08:57:58;;;;;;;20.80;19.57;;;;;;;;;;5074448;28;20446;-67
2021/07/07 09:00:30;;;;;;;20.37;19.27;;;;;;;;;;5074695;28;20802;-65
2021/07/07 09:02:58;;;;;;;21.67;20.10;;;;;;;;;;5073766;28;20541;-66
2021/07/07 09:05:26;;;;;;;20.30;19.07;;;;;;;;;;5066748;28;20451;-68
2021/07/07 09:07:54;;;;;;;20.67;19.40;;;;;;;;;;5071833;28;20965;-71
2021/07/07 09:10:28;;;;;;;20.53;19.20;;;;;;;;;;5072027;28;20501;-70
2021/07/07 09:12:56;;;;;;;19.33;18.23;;;;;;;;;;5072327;28;20474;-69
2021/07/07 09:15:23;;;;;;;20.50;19.30;;;;;;;;;;5072798;28;20492;-69
2021/07/07 09:17:52;;;;;;;20.37;19.00;;;;;;;;;;5073870;28;20459;-70
2021/07/07 09:20:20;;;;;;;21.00;19.17;;;;;;;;;;5073159;28;20988;-70
2021/07/07 09:22:48;;;;;;;20.07;18.63;;;;;;;;;;5072513;28;20475;-70
2021/07/07 09:25:19;;;;;;;17.97;16.87;;;;;;;;;;5073197;28;20833;-69
2021/07/07 09:27:47;;;;;;;19.00;17.90;;;;;;;;;;5072957;28;20468;-64
2021/07/07 09:30:16;;;;;;;17.63;16.63;;;;;;;;;;5073573;28;20482;-69
2021/07/07 09:32:46;;;;;;;19.07;18.07;;;;;;;;;;5094130;22;20526;-68
2021/07/07 09:35:14;;;;;;;18.30;17.30;;;;;;;;;;5066356;28;20961;-68
2021/07/07 09:37:48;;;;;;;19.27;17.77;;;;;;;;;;5066620;28;20474;-68
2021/07/07 09:40:17;;;;;;;17.77;16.77;;;;;;;;;;5066730;28;20531;-69
2021/07/07 09:42:46;;;;;;;19.60;18.43;;;;;;;;;;5074472;28;20468;-68
2021/07/07 09:45:15;;;;;;;17.37;16.47;;;;;;;;;;5084456;28;20452;-68
2021/07/07 09:47:43;;;;;;;17.47;16.57;;;;;;;;;;5078144;28;20868;-68
2021/07/07 09:50:11;;;;;;;18.40;17.30;;;;;;;;;;5091888;28;20485;-72
2021/07/07 09:52:38;;;;;;;16.90;16.00;;;;;;;;;;5092325;28;20446;-68
2021/07/07 09:55:08;;;;;;;18.47;17.43;;;;;;;;;;5075716;28;20453;-69
2021/07/07 09:57:45;;;;;;;19.27;18.20;;;;;;;;;;5071530;28;20443;-68
2021/07/07 10:00:13;;;;;;;19.50;18.07;;;;;;;;;;5060758;28;20493;-71
2021/07/07 10:02:41;;;;;;;19.53;18.50;;;;;;;;;;5067726;28;20842;-68
2021/07/07 10:05:10;;;;;;;18.13;17.13;;;;;;;;;;5070809;28;20817;-68
2021/07/07 10:07:37;;;;;;;17.23;16.37;;;;;;;;;;5071652;28;20464;-68
2021/07/07 10:10:05;;;;;;;18.20;17.27;;;;;;;;;;5074106;28;20478;-67
2021/07/07 10:12:32;;;;;;;20.37;19.27;;;;;;;;;;5071349;28;20501;-69
2021/07/07 10:15:01;;;;;;;19.77;18.77;;;;;;;;;;5058442;28;20456;-69
2021/07/07 10:17:28;;;;;;;19.40;18.40;;;;;;;;;;5071433;28;20451;-68
2021/07/07 10:19:57;;;;;;;18.30;17.30;;;;;;;;;;5071365;28;20465;-68
2021/07/07 10:22:25;;;;;;;18.10;17.13;;;;;;;;;;5070743;28;20447;-68
2021/07/07 10:24:52;;;;;;;19.93;18.53;;;;;;;;;;5071881;28;20443;-68
2021/07/07 10:27:20;;;;;;;18.13;17.23;;;;;;;;;;5071494;28;20457;-67
2021/07/07 10:29:48;;;;;;;17.80;17.00;;;;;;;;;;5071558;28;20664;-67
2021/07/07 10:32:17;;;;;;;17.63;16.63;;;;;;;;;;5061699;28;20473;-68
2021/07/07 10:34:44;;;;;;;17.40;16.50;;;;;;;;;;5070670;28;20577;-68
2021/07/07 10:37:11;;;;;;;17.33;16.43;;;;;;;;;;5071088;28;20451;-67
2021/07/07 10:39:38;;;;;;;16.90;16.10;;;;;;;;;;5069809;28;20951;-68
2021/07/07 10:42:08;;;;;;;18.67;17.57;;;;;;;;;;5051026;28;20474;-68
2021/07/07 10:44:51;;;;;;;17.57;16.60;;;;;;;;;;5067377;28;20612;-68
2021/07/07 10:47:32;;;;;;;17.47;16.30;;;;;;;;;;5071251;28;20443;-68
2021/07/07 10:50:01;;;;;;;17.20;16.20;;;;;;;;;;5070968;28;20496;-68
2021/07/07 10:52:34;;;;;;;17.00;16.13;;;;;;;;;;5070117;28;20454;-68
2021/07/07 10:55:02;;;;;;;17.60;16.70;;;;;;;;;;5072700;28;20893;-68
2021/07/07 10:57:36;;;;;;;17.13;16.13;;;;;;;;;;5067855;28;20503;-68
2021/07/07 11:00:05;;;;;;;17.30;16.40;;;;;;;;;;5068735;28;20470;-68
2021/07/07 11:02:33;;;;;;;16.80;16.00;;;;;;;;;;5069054;28;20475;-68
2021/07/07 11:05:02;;;;;;;17.57;16.57;;;;;;;;;;5063711;28;20458;-67
2021/07/07 11:07:30;;;;;;;17.20;16.40;;;;;;;;;;5070365;28;20829;-69
2021/07/07 11:09:58;;;;;;;17.13;15.90;;;;;;;;;;5070406;28;20493;-68
2021/07/07 11:12:30;;;;;;;16.87;16.07;;;;;;;;;;5068641;28;20463;-69
2021/07/07 11:15:03;;;;;;;17.30;16.40;;;;;;;;;;5068612;28;20473;-65
2021/07/07 11:17:35;;;;;;;17.77;16.77;;;;;;;;;;5071014;28;20454;-65
2021/07/07 11:20:04;;;;;;;16.90;16.10;;;;;;;;;;5070221;28;20554;-65
2021/07/07 11:22:32;;;;;;;17.67;16.83;;;;;;;;;;5070435;28;20467;-65
2021/07/07 11:25:03;;;;;;;18.47;17.37;;;;;;;;;;5070108;28;20473;-65
2021/07/07 11:27:30;;;;;;;17.73;16.83;;;;;;;;;;5074608;28;20462;-65
2021/07/07 11:29:57;;;;;;;17.80;16.90;;;;;;;;;;5068951;28;20488;-64
2021/07/07 11:32:25;;;;;;;18.00;17.20;;;;;;;;;;5068074;28;20831;-65
2021/07/07 11:34:55;;;;;;;18.17;17.27;;;;;;;;;;5065827;28;20554;-65
2021/07/07 11:37:23;;;;;;;18.00;17.00;;;;;;;;;;5054607;28;20461;-65
2021/07/07 11:40:07;;;;;;;18.27;17.37;;;;;;;;;;5070676;28;20942;-65
2021/07/07 11:42:34;;;;;;;17.90;17.00;;;;;;;;;;5094672;28;20460;-64
2021/07/07 11:45:02;;;;;;;17.87;16.97;;;;;;;;;;5082715;28;20469;-66
2021/07/07 11:47:32;;;;;;;17.53;16.63;;;;;;;;;;5074678;28;20549;-64
2021/07/07 11:50:04;;;;;;;17.10;16.30;;;;;;;;;;5072168;28;20478;-66
2021/07/07 11:52:31;;;;;;;17.30;16.40;;;;;;;;;;5077834;28;20493;-65
2021/07/07 11:54:59;;;;;;;16.97;16.17;;;;;;;;;;5085995;28;20472;-65
2021/07/07 11:57:27;;;;;;;17.90;16.97;;;;;;;;;;5072524;28;20465;-66
2021/07/07 11:59:54;;;;;;;19.73;18.77;;;;;;;;;;5069396;28;20467;-64
2021/07/07 12:02:21;;;;;;;19.80;18.80;;;;;;;;;;5067347;28;20463;-66
2021/07/07 12:04:48;;;;;;;18.23;17.30;;;;;;;;;;5063252;28;20474;-66
2021/07/07 12:07:20;;;;;;;18.10;17.30;;;;;;;;;;5077754;28;20453;-66
2021/07/07 12:09:48;;;;;;;18.20;17.20;;;;;;;;;;5081199;28;20844;-64
2021/07/07 12:12:15;;;;;;;18.30;17.47;;;;;;;;;;5073880;28;20498;-64
2021/07/07 12:14:42;;;;;;;17.97;17.07;;;;;;;;;;5093042;28;20480;-65
2021/07/07 12:17:10;;;;;;;18.43;17.63;;;;;;;;;;5079538;28;20473;-66
2021/07/07 12:19:37;;;;;;;18.30;17.50;;;;;;;;;;5073889;28;20976;-64
2021/07/07 12:22:05;;;;;;;18.87;17.97;;;;;;;;;;5077227;28;20461;-64
2021/07/07 12:24:35;;;;;;;19.23;18.33;;;;;;;;;;5072744;28;20540;-64
2021/07/07 12:27:03;;;;;;;19.00;18.03;;;;;;;;;;5070843;28;20466;-64
2021/07/07 12:29:31;;;;;;;19.03;18.13;;;;;;;;;;5072694;28;20467;-64
2021/07/07 12:32:00;;;;;;;17.53;16.80;;;;;;;;;;5071792;28;20497;-64
2021/07/07 12:34:28;;;;;;;20.40;18.90;;;;;;;;;;5073288;28;20485;-64
2021/07/07 12:36:57;;;;;;;19.10;18.20;;;;;;;;;;5070467;28;20467;-65
2021/07/07 12:39:26;;;;;;;19.20;18.30;;;;;;;;;;5071473;28;20467;-64
2021/07/07 12:41:59;;;;;;;18.20;17.30;;;;;;;;;;5070684;28;20561;-64
2021/07/07 12:44:27;;;;;;;17.67;16.87;;;;;;;;;;5070619;28;20491;-64
2021/07/07 12:46:56;;;;;;;17.83;16.93;;;;;;;;;;5073373;28;20478;-64
2021/07/07 12:49:38;;;;;;;19.00;18.10;;;;;;;;;;5072938;28;20463;-64
2021/07/07 12:52:22;;;;;;;18.20;17.40;;;;;;;;;;5069566;28;20823;-64
2021/07/07 12:55:01;;;;;;;18.37;17.50;;;;;;;;;;5056948;28;20459;-64
2021/07/07 12:57:42;;;;;;;17.30;16.50;;;;;;;;;;5071222;28;20462;-64
2021/07/07 13:00:10;;;;;;;17.73;16.93;;;;;;;;;;5083008;28;20466;-64
2021/07/07 13:02:48;;;;;;;18.40;17.40;;;;;;;;;;5084617;28;20488;-64
2021/07/07 13:05:16;;;;;;;18.13;17.33;;;;;;;;;;5076988;28;20479;-64
2021/07/07 13:07:44;;;;;;;18.03;17.23;;;;;;;;;;5068532;28;20466;-63
2021/07/07 13:10:11;;;;;;;18.13;17.30;;;;;;;;;;5052962;28;20483;-64
2021/07/07 13:12:38;;;;;;;18.50;17.60;;;;;;;;;;5062985;28;20463;-64
2021/07/07 13:15:07;;;;;;;18.43;17.33;;;;;;;;;;5068950;28;20451;-64
2021/07/07 13:17:34;;;;;;;18.20;17.30;;;;;;;;;;5071071;28;20953;-64
2021/07/07 13:20:03;;;;;;;17.80;17.00;;;;;;;;;;5072401;28;20463;-64
2021/07/07 13:22:30;;;;;;;18.17;17.27;;;;;;;;;;5070138;28;20546;-64
2021/07/07 13:24:57;;;;;;;18.13;17.13;;;;;;;;;;5072469;28;20461;-64
2021/07/07 13:27:25;;;;;;;20.73;19.73;;;;;;;;;;5074899;28;20463;-64
2021/07/07 13:29:56;;;;;;;20.80;19.70;;;;;;;;;;5076492;28;20469;-64
2021/07/07 13:32:25;;;;;;;20.63;19.60;;;;;;;;;;5067840;28;20520;-64
2021/07/07 13:34:53;;;;;;;20.33;19.23;;;;;;;;;;5070325;28;20809;-66
2021/07/07 13:37:22;;;;;;;20.00;19.00;;;;;;;;;;5072182;28;20448;-64
2021/07/07 13:39:50;;;;;;;21.00;19.80;;;;;;;;;;5071991;28;20459;-64
2021/07/07 13:42:17;;;;;;;20.60;19.40;;;;;;;;;;5071379;28;20541;-64
2021/07/07 13:44:45;;;;;;;20.20;19.20;;;;;;;;;;5066579;28;20467;-64
2021/07/07 13:47:13;;;;;;;19.10;18.10;;;;;;;;;;5087149;28;20462;-64
2021/07/07 13:49:42;;;;;;;20.13;19.00;;;;;;;;;;5072245;28;20458;-64
2021/07/07 13:52:09;;;;;;;20.00;19.10;;;;;;;;;;5071497;28;20459;-65
2021/07/07 13:54:38;;;;;;;20.83;19.60;;;;;;;;;;5085246;28;20489;-64
2021/07/07 13:57:05;;;;;;;20.03;18.73;;;;;;;;;;5078517;28;20469;-65
2021/07/07 13:59:32;;;;;;;20.00;19.00;;;;;;;;;;5071309;28;20451;-64
2021/07/07 14:01:59;;;;;;;20.30;19.20;;;;;;;;;;5071212;28;20443;-65
2021/07/07 14:04:26;;;;;;;21.40;20.10;;;;;;;;;;5071872;28;20471;-65
2021/07/07 14:06:55;;;;;;;20.37;19.17;;;;;;;;;;5071270;28;20459;-65
2021/07/07 14:09:23;;;;;;;20.97;19.87;;;;;;;;;;5063447;28;20474;-65
2021/07/07 14:11:50;;;;;;;19.70;18.60;;;;;;;;;;5051435;28;20490;-65
2021/07/07 14:14:17;;;;;;;19.50;18.50;;;;;;;;;;5060727;28;21921;-65
2021/07/07 14:16:44;;;;;;;19.40;18.40;;;;;;;;;;5063669;28;20464;-66
2021/07/07 14:19:12;;;;;;;20.87;19.57;;;;;;;;;;5069551;28;20454;-65
2021/07/07 14:21:39;;;;;;;21.00;19.90;;;;;;;;;;5050880;28;20450;-65